map of SOF home
SOF - Airport
Location
City:  Sofia, Sofia-Grad, Bulgaria
Name:Sofia International Airport
Old (Alt.):Vrajdebna, Vrazhdebna
ICAO:LBSF
IATA:SOF

Details
Type:Airport (Aerodrome, Airfield)
Use:Public/Civil, International (customs port of entry)
Latitude:4241'43"N (42.695194)
Longitude:2324'22"E (23.406167)
Datum:WGS 1984
Elevation:1742 ft (531 m)
Variation:5.12E (WMM2015v2 magnetic declination)
0.12 annual change
Runways:1
Longest:9186 × 147 ft (2800 × 45 m), paved

Time
Time Zone:UTC+2 (DST+3)
Local Time:

Weather
METAR:LBSF 041400Z VRB02KT 9000 NSC 14/06 Q1020 NOSIG
TAF:LBSF 041100Z 0412/0512 VRB04KT 8000 SCT060
BECMG 0420/0421 5000 BR SCT020
TEMPO 0423/0507 2000 BR BKN007 PROB40 0503/0507 0800 BCFG BKN003
BECMG 0507/0508 8000 SCT020

Related Locations
Nearby:
Farthest:CHT: 11438 mi / 18408 km
Waitangi [Tuuta], CIT, NZ

Find:

   beyond  
but within

Other Information
Maps:
NOTAMs:
Links:
Sources:

  
  • flag of Bulgaria
  

Sectional Chart

Flight Planning
at skyvector.com

Satellite Image

Google Maps Satellite view

 

Copyright © 2004-2019 Karl L. Swartz. All rights reserved.
The Great Circle Mapper name and logo are trademarks of the Great Circle Mapper.
All other trademarks mentioned herein belong to their respective owners.
Please see credits for attibutions and further copyright information.

  Follow gcmap on Facebook Follow gcmap on Twitter GCmap on LinkedIn

hCard Microformat

Geo Microformat